sensor_id;sensor_type;location;lat;lon;timestamp;temperature;humidity
81222;DHT22;70691;52.492;13.420;2023-07-22T00:01:25;16.90;64.80
81222;DHT22;70691;52.492;13.420;2023-07-22T00:03:51;16.90;64.80
81222;DHT22;70691;52.492;13.420;2023-07-22T00:06:17;16.90;65.00
81222;DHT22;70691;52.492;13.420;2023-07-22T00:08:42;16.90;65.10
81222;DHT22;70691;52.492;13.420;2023-07-22T00:11:08;16.90;65.30
81222;DHT22;70691;52.492;13.420;2023-07-22T00:13:34;16.90;65.30
81222;DHT22;70691;52.492;13.420;2023-07-22T00:16:01;16.90;65.10
81222;DHT22;70691;52.492;13.420;2023-07-22T00:18:28;17.00;64.90
81222;DHT22;70691;52.492;13.420;2023-07-22T00:20:54;17.00;64.90
81222;DHT22;70691;52.492;13.420;2023-07-22T00:23:20;17.00;65.00
81222;DHT22;70691;52.492;13.420;2023-07-22T00:25:46;17.00;65.10
81222;DHT22;70691;52.492;13.420;2023-07-22T00:28:12;16.90;65.00
81222;DHT22;70691;52.492;13.420;2023-07-22T00:30:38;16.90;65.10
81222;DHT22;70691;52.492;13.420;2023-07-22T00:33:03;16.90;65.40
81222;DHT22;70691;52.492;13.420;2023-07-22T00:35:29;17.00;65.30
81222;DHT22;70691;52.492;13.420;2023-07-22T00:37:55;17.00;65.20
81222;DHT22;70691;52.492;13.420;2023-07-22T00:40:20;17.00;65.30
81222;DHT22;70691;52.492;13.420;2023-07-22T00:42:53;17.00;65.30
81222;DHT22;70691;52.492;13.420;2023-07-22T00:45:19;17.00;65.40
81222;DHT22;70691;52.492;13.420;2023-07-22T00:47:45;17.00;65.40
81222;DHT22;70691;52.492;13.420;2023-07-22T00:50:11;17.10;65.10
81222;DHT22;70691;52.492;13.420;2023-07-22T00:52:38;17.10;65.20
81222;DHT22;70691;52.492;13.420;2023-07-22T00:55:05;17.10;65.20
81222;DHT22;70691;52.492;13.420;2023-07-22T00:57:31;17.30;64.40
81222;DHT22;70691;52.492;13.420;2023-07-22T00:59:57;17.30;64.30
81222;DHT22;70691;52.492;13.420;2023-07-22T01:02:22;17.20;64.40
81222;DHT22;70691;52.492;13.420;2023-07-22T01:04:50;17.30;64.50
81222;DHT22;70691;52.492;13.420;2023-07-22T01:07:17;17.30;64.30
81222;DHT22;70691;52.492;13.420;2023-07-22T01:09:43;17.30;64.40
81222;DHT22;70691;52.492;13.420;2023-07-22T01:12:10;17.30;64.30
81222;DHT22;70691;52.492;13.420;2023-07-22T01:14:37;17.30;64.50
81222;DHT22;70691;52.492;13.420;2023-07-22T01:17:05;17.30;64.20
81222;DHT22;70691;52.492;13.420;2023-07-22T01:19:32;17.50;63.90
81222;DHT22;70691;52.492;13.420;2023-07-22T01:22:00;17.40;64.10
81222;DHT22;70691;52.492;13.420;2023-07-22T01:24:27;17.40;64.30
81222;DHT22;70691;52.492;13.420;2023-07-22T01:26:53;17.40;64.60
81222;DHT22;70691;52.492;13.420;2023-07-22T01:29:18;17.40;64.60
81222;DHT22;70691;52.492;13.420;2023-07-22T01:31:47;17.50;64.40
81222;DHT22;70691;52.492;13.420;2023-07-22T01:34:13;17.40;64.50
81222;DHT22;70691;52.492;13.420;2023-07-22T01:36:39;17.40;64.60
81222;DHT22;70691;52.492;13.420;2023-07-22T01:39:05;17.50;64.10
81222;DHT22;70691;52.492;13.420;2023-07-22T01:41:33;17.50;64.00
81222;DHT22;70691;52.492;13.420;2023-07-22T01:43:59;17.50;64.40
81222;DHT22;70691;52.492;13.420;2023-07-22T01:46:25;17.60;63.90
81222;DHT22;70691;52.492;13.420;2023-07-22T01:48:51;17.40;64.40
81222;DHT22;70691;52.492;13.420;2023-07-22T01:51:16;17.50;64.80
81222;DHT22;70691;52.492;13.420;2023-07-22T01:53:42;17.40;65.00
81222;DHT22;70691;52.492;13.420;2023-07-22T01:56:07;17.30;66.10
81222;DHT22;70691;52.492;13.420;2023-07-22T01:58:34;17.40;65.00
81222;DHT22;70691;52.492;13.420;2023-07-22T02:01:00;17.50;64.50
81222;DHT22;70691;52.492;13.420;2023-07-22T02:03:25;17.60;63.80
81222;DHT22;70691;52.492;13.420;2023-07-22T02:05:51;17.60;63.60
81222;DHT22;70691;52.492;13.420;2023-07-22T02:08:17;17.60;63.70
81222;DHT22;70691;52.492;13.420;2023-07-22T02:10:42;17.60;63.30
81222;DHT22;70691;52.492;13.420;2023-07-22T02:13:09;17.60;63.30
81222;DHT22;70691;52.492;13.420;2023-07-22T02:15:34;17.50;63.40
81222;DHT22;70691;52.492;13.420;2023-07-22T02:18:00;17.40;63.50
81222;DHT22;70691;52.492;13.420;2023-07-22T02:20:26;17.30;63.90
81222;DHT22;70691;52.492;13.420;2023-07-22T02:22:54;17.20;64.10
81222;DHT22;70691;52.492;13.420;2023-07-22T02:25:20;17.20;63.90
81222;DHT22;70691;52.492;13.420;2023-07-22T02:27:45;17.10;64.20
81222;DHT22;70691;52.492;13.420;2023-07-22T02:30:12;17.10;64.50
81222;DHT22;70691;52.492;13.420;2023-07-22T02:32:40;17.20;64.30
81222;DHT22;70691;52.492;13.420;2023-07-22T02:35:07;17.20;63.50
81222;DHT22;70691;52.492;13.420;2023-07-22T02:37:34;17.30;63.10
81222;DHT22;70691;52.492;13.420;2023-07-22T02:40:00;17.30;62.70
81222;DHT22;70691;52.492;13.420;2023-07-22T02:42:26;17.20;62.90
81222;DHT22;70691;52.492;13.420;2023-07-22T02:44:51;17.20;63.20
81222;DHT22;70691;52.492;13.420;2023-07-22T02:47:17;17.10;63.40
81222;DHT22;70691;52.492;13.420;2023-07-22T02:49:43;17.10;63.50
81222;DHT22;70691;52.492;13.420;2023-07-22T02:52:09;17.00;64.50
81222;DHT22;70691;52.492;13.420;2023-07-22T02:54:40;17.10;63.20
81222;DHT22;70691;52.492;13.420;2023-07-22T02:57:06;16.90;63.50
81222;DHT22;70691;52.492;13.420;2023-07-22T02:59:32;16.80;63.70
81222;DHT22;70691;52.492;13.420;2023-07-22T03:01:58;16.90;64.20
81222;DHT22;70691;52.492;13.420;2023-07-22T03:04:24;16.90;63.80
81222;DHT22;70691;52.492;13.420;2023-07-22T03:06:50;16.90;63.60
81222;DHT22;70691;52.492;13.420;2023-07-22T03:09:15;16.90;63.30
81222;DHT22;70691;52.492;13.420;2023-07-22T03:11:41;16.90;63.40
81222;DHT22;70691;52.492;13.420;2023-07-22T03:14:07;17.00;63.20
81222;DHT22;70691;52.492;13.420;2023-07-22T03:16:32;16.90;63.20
81222;DHT22;70691;52.492;13.420;2023-07-22T03:18:58;16.90;63.70
81222;DHT22;70691;52.492;13.420;2023-07-22T03:21:23;16.70;64.10
81222;DHT22;70691;52.492;13.420;2023-07-22T03:23:49;16.70;64.60
81222;DHT22;70691;52.492;13.420;2023-07-22T03:26:16;16.70;64.00
81222;DHT22;70691;52.492;13.420;2023-07-22T03:28:41;16.80;64.20
81222;DHT22;70691;52.492;13.420;2023-07-22T03:31:07;16.70;64.10
81222;DHT22;70691;52.492;13.420;2023-07-22T03:33:34;16.70;64.20
81222;DHT22;70691;52.492;13.420;2023-07-22T03:36:00;16.70;64.50
81222;DHT22;70691;52.492;13.420;2023-07-22T03:38:26;16.70;64.30
81222;DHT22;70691;52.492;13.420;2023-07-22T03:40:57;16.80;64.20
81222;DHT22;70691;52.492;13.420;2023-07-22T03:43:23;16.80;63.90
81222;DHT22;70691;52.492;13.420;2023-07-22T03:45:48;16.80;64.40
81222;DHT22;70691;52.492;13.420;2023-07-22T03:48:14;16.80;64.10
81222;DHT22;70691;52.492;13.420;2023-07-22T03:50:39;16.80;65.20
81222;DHT22;70691;52.492;13.420;2023-07-22T03:53:05;16.80;64.20
81222;DHT22;70691;52.492;13.420;2023-07-22T03:55:31;16.70;64.40
81222;DHT22;70691;52.492;13.420;2023-07-22T03:57:56;16.70;64.70
81222;DHT22;70691;52.492;13.420;2023-07-22T04:00:22;16.70;64.50
81222;DHT22;70691;52.492;13.420;2023-07-22T04:02:48;16.80;64.30
81222;DHT22;70691;52.492;13.420;2023-07-22T04:05:14;17.00;63.60
81222;DHT22;70691;52.492;13.420;2023-07-22T04:07:39;16.90;63.10
81222;DHT22;70691;52.492;13.420;2023-07-22T04:10:05;16.90;63.00
81222;DHT22;70691;52.492;13.420;2023-07-22T04:12:31;16.90;63.00
81222;DHT22;70691;52.492;13.420;2023-07-22T04:14:57;16.90;62.70
81222;DHT22;70691;52.492;13.420;2023-07-22T04:17:23;16.90;62.30
81222;DHT22;70691;52.492;13.420;2023-07-22T04:19:51;16.90;62.30
81222;DHT22;70691;52.492;13.420;2023-07-22T04:22:17;16.90;62.30
81222;DHT22;70691;52.492;13.420;2023-07-22T04:24:42;16.90;62.00
81222;DHT22;70691;52.492;13.420;2023-07-22T04:27:08;16.90;61.50
81222;DHT22;70691;52.492;13.420;2023-07-22T04:29:35;16.90;61.40
81222;DHT22;70691;52.492;13.420;2023-07-22T04:32:01;16.90;61.50
81222;DHT22;70691;52.492;13.420;2023-07-22T04:34:31;16.90;61.20
81222;DHT22;70691;52.492;13.420;2023-07-22T04:36:57;16.90;61.50
81222;DHT22;70691;52.492;13.420;2023-07-22T04:39:23;17.10;61.20
81222;DHT22;70691;52.492;13.420;2023-07-22T04:41:49;17.20;61.10
81222;DHT22;70691;52.492;13.420;2023-07-22T04:44:14;17.20;60.20
81222;DHT22;70691;52.492;13.420;2023-07-22T04:46:40;17.20;60.40
81222;DHT22;70691;52.492;13.420;2023-07-22T04:49:06;17.20;60.30
81222;DHT22;70691;52.492;13.420;2023-07-22T04:51:31;17.30;60.30
81222;DHT22;70691;52.492;13.420;2023-07-22T04:53:57;17.40;60.20
81222;DHT22;70691;52.492;13.420;2023-07-22T04:56:23;17.50;59.30
81222;DHT22;70691;52.492;13.420;2023-07-22T04:58:48;17.50;59.20
81222;DHT22;70691;52.492;13.420;2023-07-22T05:01:15;17.60;58.90
81222;DHT22;70691;52.492;13.420;2023-07-22T05:03:40;17.70;58.90
81222;DHT22;70691;52.492;13.420;2023-07-22T05:06:13;17.80;58.60
81222;DHT22;70691;52.492;13.420;2023-07-22T05:08:39;17.90;58.40
81222;DHT22;70691;52.492;13.420;2023-07-22T05:11:06;18.00;58.00
81222;DHT22;70691;52.492;13.420;2023-07-22T05:13:33;18.00;57.90
81222;DHT22;70691;52.492;13.420;2023-07-22T05:15:58;17.90;58.10
81222;DHT22;70691;52.492;13.420;2023-07-22T05:18:24;18.10;58.00
81222;DHT22;70691;52.492;13.420;2023-07-22T05:20:49;18.30;57.60
81222;DHT22;70691;52.492;13.420;2023-07-22T05:23:15;18.50;56.70
81222;DHT22;70691;52.492;13.420;2023-07-22T05:25:41;18.60;56.00
81222;DHT22;70691;52.492;13.420;2023-07-22T05:28:06;18.70;56.20
81222;DHT22;70691;52.492;13.420;2023-07-22T05:30:32;18.80;54.80
81222;DHT22;70691;52.492;13.420;2023-07-22T05:32:57;18.70;55.20
81222;DHT22;70691;52.492;13.420;2023-07-22T05:35:23;18.80;56.10
81222;DHT22;70691;52.492;13.420;2023-07-22T05:37:49;18.90;55.10
81222;DHT22;70691;52.492;13.420;2023-07-22T05:40:15;19.10;54.20
81222;DHT22;70691;52.492;13.420;2023-07-22T05:42:40;19.10;53.70
81222;DHT22;70691;52.492;13.420;2023-07-22T05:45:07;19.20;53.30
81222;DHT22;70691;52.492;13.420;2023-07-22T05:47:33;19.30;53.20
81222;DHT22;70691;52.492;13.420;2023-07-22T05:49:58;19.20;53.60
81222;DHT22;70691;52.492;13.420;2023-07-22T05:52:24;19.10;53.60
81222;DHT22;70691;52.492;13.420;2023-07-22T05:54:49;19.10;53.80
81222;DHT22;70691;52.492;13.420;2023-07-22T05:57:15;19.10;53.50
81222;DHT22;70691;52.492;13.420;2023-07-22T05:59:41;18.90;54.00
81222;DHT22;70691;52.492;13.420;2023-07-22T06:02:08;18.80;55.50
81222;DHT22;70691;52.492;13.420;2023-07-22T06:04:34;18.80;54.70
81222;DHT22;70691;52.492;13.420;2023-07-22T06:06:59;18.80;54.40
81222;DHT22;70691;52.492;13.420;2023-07-22T06:09:25;18.70;55.10
81222;DHT22;70691;52.492;13.420;2023-07-22T06:11:51;18.70;55.20
81222;DHT22;70691;52.492;13.420;2023-07-22T06:14:16;18.80;54.50
81222;DHT22;70691;52.492;13.420;2023-07-22T06:16:42;19.00;54.30
81222;DHT22;70691;52.492;13.420;2023-07-22T06:19:07;19.10;54.30
81222;DHT22;70691;52.492;13.420;2023-07-22T06:21:33;19.20;53.60
81222;DHT22;70691;52.492;13.420;2023-07-22T06:23:59;19.30;53.80
81222;DHT22;70691;52.492;13.420;2023-07-22T06:26:24;19.30;52.80
81222;DHT22;70691;52.492;13.420;2023-07-22T06:28:50;19.40;52.50
81222;DHT22;70691;52.492;13.420;2023-07-22T06:31:16;19.30;52.50
81222;DHT22;70691;52.492;13.420;2023-07-22T06:33:43;19.30;51.80
81222;DHT22;70691;52.492;13.420;2023-07-22T06:36:09;19.20;53.00
81222;DHT22;70691;52.492;13.420;2023-07-22T06:38:34;19.30;52.90
81222;DHT22;70691;52.492;13.420;2023-07-22T06:41:00;19.40;52.20
81222;DHT22;70691;52.492;13.420;2023-07-22T06:43:26;19.60;52.10
81222;DHT22;70691;52.492;13.420;2023-07-22T06:45:51;19.70;51.40
81222;DHT22;70691;52.492;13.420;2023-07-22T06:48:17;19.80;51.50
81222;DHT22;70691;52.492;13.420;2023-07-22T06:50:49;19.80;50.60
81222;DHT22;70691;52.492;13.420;2023-07-22T06:53:15;19.80;49.90
81222;DHT22;70691;52.492;13.420;2023-07-22T06:55:47;20.00;49.40
81222;DHT22;70691;52.492;13.420;2023-07-22T06:58:13;20.10;49.20
81222;DHT22;70691;52.492;13.420;2023-07-22T07:00:39;20.20;48.30
81222;DHT22;70691;52.492;13.420;2023-07-22T07:03:04;20.20;48.20
81222;DHT22;70691;52.492;13.420;2023-07-22T07:05:30;20.30;47.50
81222;DHT22;70691;52.492;13.420;2023-07-22T07:07:56;20.30;46.90
81222;DHT22;70691;52.492;13.420;2023-07-22T07:10:21;20.40;45.90
81222;DHT22;70691;52.492;13.420;2023-07-22T07:12:47;20.30;46.70
81222;DHT22;70691;52.492;13.420;2023-07-22T07:15:13;20.20;47.40
81222;DHT22;70691;52.492;13.420;2023-07-22T07:17:39;20.30;46.10
81222;DHT22;70691;52.492;13.420;2023-07-22T07:20:05;20.20;46.10
81222;DHT22;70691;52.492;13.420;2023-07-22T07:22:31;20.30;45.80
81222;DHT22;70691;52.492;13.420;2023-07-22T07:24:56;20.40;44.60
81222;DHT22;70691;52.492;13.420;2023-07-22T07:27:22;20.40;44.70
81222;DHT22;70691;52.492;13.420;2023-07-22T07:29:51;20.60;44.80
81222;DHT22;70691;52.492;13.420;2023-07-22T07:32:16;20.50;45.10
81222;DHT22;70691;52.492;13.420;2023-07-22T07:34:42;20.50;45.30
81222;DHT22;70691;52.492;13.420;2023-07-22T07:37:08;20.60;46.10
81222;DHT22;70691;52.492;13.420;2023-07-22T07:39:33;20.60;44.50
81222;DHT22;70691;52.492;13.420;2023-07-22T07:41:59;20.70;43.20
81222;DHT22;70691;52.492;13.420;2023-07-22T07:44:24;20.70;43.50
81222;DHT22;70691;52.492;13.420;2023-07-22T07:46:50;20.90;42.90
81222;DHT22;70691;52.492;13.420;2023-07-22T07:49:16;20.80;43.10
81222;DHT22;70691;52.492;13.420;2023-07-22T07:51:41;20.70;43.00
81222;DHT22;70691;52.492;13.420;2023-07-22T07:54:08;20.60;43.30
81222;DHT22;70691;52.492;13.420;2023-07-22T07:56:33;20.60;43.00
81222;DHT22;70691;52.492;13.420;2023-07-22T07:58:59;20.70;42.40
81222;DHT22;70691;52.492;13.420;2023-07-22T08:01:25;20.60;42.50
81222;DHT22;70691;52.492;13.420;2023-07-22T08:03:50;20.70;42.30
81222;DHT22;70691;52.492;13.420;2023-07-22T08:06:16;20.80;41.60
81222;DHT22;70691;52.492;13.420;2023-07-22T08:08:42;21.00;40.90
81222;DHT22;70691;52.492;13.420;2023-07-22T08:11:13;20.80;41.80
81222;DHT22;70691;52.492;13.420;2023-07-22T08:13:39;20.80;42.50
81222;DHT22;70691;52.492;13.420;2023-07-22T08:16:07;20.90;42.20
81222;DHT22;70691;52.492;13.420;2023-07-22T08:18:34;21.00;42.00
81222;DHT22;70691;52.492;13.420;2023-07-22T08:21:00;21.10;41.30
81222;DHT22;70691;52.492;13.420;2023-07-22T08:23:26;21.30;40.60
81222;DHT22;70691;52.492;13.420;2023-07-22T08:25:52;21.30;39.70
81222;DHT22;70691;52.492;13.420;2023-07-22T08:28:18;21.40;39.80
81222;DHT22;70691;52.492;13.420;2023-07-22T08:30:43;21.60;39.40
81222;DHT22;70691;52.492;13.420;2023-07-22T08:33:10;21.80;39.20
81222;DHT22;70691;52.492;13.420;2023-07-22T08:35:40;21.80;38.70
81222;DHT22;70691;52.492;13.420;2023-07-22T08:38:06;21.80;38.40
81222;DHT22;70691;52.492;13.420;2023-07-22T08:40:36;21.80;38.80
81222;DHT22;70691;52.492;13.420;2023-07-22T08:43:04;21.90;38.70
81222;DHT22;70691;52.492;13.420;2023-07-22T08:45:32;21.90;37.10
81222;DHT22;70691;52.492;13.420;2023-07-22T08:48:01;22.00;37.60
81222;DHT22;70691;52.492;13.420;2023-07-22T08:50:30;21.90;37.70
81222;DHT22;70691;52.492;13.420;2023-07-22T08:52:59;21.90;37.60
81222;DHT22;70691;52.492;13.420;2023-07-22T08:55:25;21.80;37.90
81222;DHT22;70691;52.492;13.420;2023-07-22T08:57:52;21.70;38.40
81222;DHT22;70691;52.492;13.420;2023-07-22T09:00:18;21.80;38.10
81222;DHT22;70691;52.492;13.420;2023-07-22T09:02:44;21.90;37.80
81222;DHT22;70691;52.492;13.420;2023-07-22T09:05:10;22.00;37.10
81222;DHT22;70691;52.492;13.420;2023-07-22T09:07:37;22.00;37.10
81222;DHT22;70691;52.492;13.420;2023-07-22T09:10:08;21.90;37.40
81222;DHT22;70691;52.492;13.420;2023-07-22T09:12:35;21.90;37.60
81222;DHT22;70691;52.492;13.420;2023-07-22T09:15:12;22.10;37.20
81222;DHT22;70691;52.492;13.420;2023-07-22T09:17:41;22.20;37.20
81222;DHT22;70691;52.492;13.420;2023-07-22T09:20:07;22.20;36.30
81222;DHT22;70691;52.492;13.420;2023-07-22T09:22:34;22.10;36.40
81222;DHT22;70691;52.492;13.420;2023-07-22T09:27:41;22.00;37.40
81222;DHT22;70691;52.492;13.420;2023-07-22T09:30:33;22.10;37.80
81222;DHT22;70691;52.492;13.420;2023-07-22T09:33:01;22.30;37.00
81222;DHT22;70691;52.492;13.420;2023-07-22T09:35:48;22.50;35.70
81222;DHT22;70691;52.492;13.420;2023-07-22T09:38:14;22.70;35.50
81222;DHT22;70691;52.492;13.420;2023-07-22T09:40:47;22.80;35.60
81222;DHT22;70691;52.492;13.420;2023-07-22T09:43:12;22.90;35.00
81222;DHT22;70691;52.492;13.420;2023-07-22T09:45:38;22.90;35.40
81222;DHT22;70691;52.492;13.420;2023-07-22T09:48:04;22.90;34.00
81222;DHT22;70691;52.492;13.420;2023-07-22T09:50:31;22.90;34.30
81222;DHT22;70691;52.492;13.420;2023-07-22T09:52:58;22.90;33.80
81222;DHT22;70691;52.492;13.420;2023-07-22T09:55:29;22.90;34.00
81222;DHT22;70691;52.492;13.420;2023-07-22T09:57:57;23.10;33.50
81222;DHT22;70691;52.492;13.420;2023-07-22T10:00:25;22.90;33.60
81222;DHT22;70691;52.492;13.420;2023-07-22T10:02:53;22.90;34.10
81222;DHT22;70691;52.492;13.420;2023-07-22T10:05:21;22.80;34.40
81222;DHT22;70691;52.492;13.420;2023-07-22T10:07:48;22.80;34.00
81222;DHT22;70691;52.492;13.420;2023-07-22T10:10:20;22.80;34.60
81222;DHT22;70691;52.492;13.420;2023-07-22T10:12:47;22.90;33.20
81222;DHT22;70691;52.492;13.420;2023-07-22T10:15:14;22.80;33.10
81222;DHT22;70691;52.492;13.420;2023-07-22T10:17:42;22.70;33.50
81222;DHT22;70691;52.492;13.420;2023-07-22T10:20:12;22.90;33.00
81222;DHT22;70691;52.492;13.420;2023-07-22T10:22:44;23.00;32.30
81222;DHT22;70691;52.492;13.420;2023-07-22T10:25:12;22.90;32.20
81222;DHT22;70691;52.492;13.420;2023-07-22T10:27:41;22.90;32.90
81222;DHT22;70691;52.492;13.420;2023-07-22T10:30:09;22.90;33.00
81222;DHT22;70691;52.492;13.420;2023-07-22T10:32:40;22.90;33.20
81222;DHT22;70691;52.492;13.420;2023-07-22T10:35:11;23.10;32.80
81222;DHT22;70691;52.492;13.420;2023-07-22T10:37:40;23.30;32.20
81222;DHT22;70691;52.492;13.420;2023-07-22T10:43:06;23.20;31.70
81222;DHT22;70691;52.492;13.420;2023-07-22T10:45:42;23.00;32.10
81222;DHT22;70691;52.492;13.420;2023-07-22T10:48:10;22.90;32.10
81222;DHT22;70691;52.492;13.420;2023-07-22T10:53:08;22.90;32.10
81222;DHT22;70691;52.492;13.420;2023-07-22T10:56:03;22.90;31.50
81222;DHT22;70691;52.492;13.420;2023-07-22T11:01:38;23.20;31.40
81222;DHT22;70691;52.492;13.420;2023-07-22T11:12:13;23.70;30.40
81222;DHT22;70691;52.492;13.420;2023-07-22T11:14:41;23.70;30.40
81222;DHT22;70691;52.492;13.420;2023-07-22T11:17:10;23.90;30.00
81222;DHT22;70691;52.492;13.420;2023-07-22T11:19:36;24.00;29.90
81222;DHT22;70691;52.492;13.420;2023-07-22T11:22:02;24.00;29.80
81222;DHT22;70691;52.492;13.420;2023-07-22T11:24:28;23.80;29.80
81222;DHT22;70691;52.492;13.420;2023-07-22T11:26:54;23.80;29.80
81222;DHT22;70691;52.492;13.420;2023-07-22T11:29:21;23.80;29.80
81222;DHT22;70691;52.492;13.420;2023-07-22T11:31:48;23.80;30.70
81222;DHT22;70691;52.492;13.420;2023-07-22T11:34:22;23.70;29.90
81222;DHT22;70691;52.492;13.420;2023-07-22T11:36:49;23.90;29.70
81222;DHT22;70691;52.492;13.420;2023-07-22T11:39:18;24.00;29.50
81222;DHT22;70691;52.492;13.420;2023-07-22T11:41:44;24.00;29.80
81222;DHT22;70691;52.492;13.420;2023-07-22T11:44:12;24.10;29.50
81222;DHT22;70691;52.492;13.420;2023-07-22T11:47:00;24.20;30.20
81222;DHT22;70691;52.492;13.420;2023-07-22T11:49:32;24.30;28.90
81222;DHT22;70691;52.492;13.420;2023-07-22T11:54:32;24.40;29.00
81222;DHT22;70691;52.492;13.420;2023-07-22T11:57:17;24.60;29.00
81222;DHT22;70691;52.492;13.420;2023-07-22T11:59:45;24.80;29.00
81222;DHT22;70691;52.492;13.420;2023-07-22T12:02:15;24.80;28.60
81222;DHT22;70691;52.492;13.420;2023-07-22T12:04:43;24.90;28.20
81222;DHT22;70691;52.492;13.420;2023-07-22T12:07:25;24.90;28.40
81222;DHT22;70691;52.492;13.420;2023-07-22T12:09:54;25.10;26.90
81222;DHT22;70691;52.492;13.420;2023-07-22T12:12:20;25.20;27.10
81222;DHT22;70691;52.492;13.420;2023-07-22T12:14:46;25.20;27.20
81222;DHT22;70691;52.492;13.420;2023-07-22T12:17:12;25.20;27.40
81222;DHT22;70691;52.492;13.420;2023-07-22T12:19:38;25.20;26.60
81222;DHT22;70691;52.492;13.420;2023-07-22T12:22:03;25.00;26.70
81222;DHT22;70691;52.492;13.420;2023-07-22T12:24:29;24.80;27.10
81222;DHT22;70691;52.492;13.420;2023-07-22T12:26:55;24.70;27.90
81222;DHT22;70691;52.492;13.420;2023-07-22T12:29:21;24.90;28.00
81222;DHT22;70691;52.492;13.420;2023-07-22T12:31:48;24.90;27.80
81222;DHT22;70691;52.492;13.420;2023-07-22T12:34:13;24.90;27.80
81222;DHT22;70691;52.492;13.420;2023-07-22T12:36:40;24.90;27.50
81222;DHT22;70691;52.492;13.420;2023-07-22T12:39:06;24.90;27.90
81222;DHT22;70691;52.492;13.420;2023-07-22T12:41:32;25.10;27.20
81222;DHT22;70691;52.492;13.420;2023-07-22T12:43:58;25.30;27.20
81222;DHT22;70691;52.492;13.420;2023-07-22T12:46:23;25.50;27.10
81222;DHT22;70691;52.492;13.420;2023-07-22T12:48:49;25.60;26.80
81222;DHT22;70691;52.492;13.420;2023-07-22T12:51:15;25.90;26.10
81222;DHT22;70691;52.492;13.420;2023-07-22T12:53:41;25.90;26.20
81222;DHT22;70691;52.492;13.420;2023-07-22T12:56:06;26.20;26.10
81222;DHT22;70691;52.492;13.420;2023-07-22T12:58:32;26.20;26.10
81222;DHT22;70691;52.492;13.420;2023-07-22T13:00:59;26.20;25.90
81222;DHT22;70691;52.492;13.420;2023-07-22T13:03:24;26.40;26.10
81222;DHT22;70691;52.492;13.420;2023-07-22T13:05:50;26.40;26.00
81222;DHT22;70691;52.492;13.420;2023-07-22T13:08:16;26.30;25.90
81222;DHT22;70691;52.492;13.420;2023-07-22T13:10:42;26.30;25.70
81222;DHT22;70691;52.492;13.420;2023-07-22T13:13:10;26.40;25.30
81222;DHT22;70691;52.492;13.420;2023-07-22T13:15:36;26.20;25.30
81222;DHT22;70691;52.492;13.420;2023-07-22T13:18:02;26.10;25.70
81222;DHT22;70691;52.492;13.420;2023-07-22T13:20:29;25.80;26.00
81222;DHT22;70691;52.492;13.420;2023-07-22T13:22:55;25.50;25.80
81222;DHT22;70691;52.492;13.420;2023-07-22T13:25:21;25.30;26.70
81222;DHT22;70691;52.492;13.420;2023-07-22T13:27:46;25.20;27.10
81222;DHT22;70691;52.492;13.420;2023-07-22T13:30:12;25.10;27.10
81222;DHT22;70691;52.492;13.420;2023-07-22T13:32:39;25.10;27.10
81222;DHT22;70691;52.492;13.420;2023-07-22T13:35:05;25.10;27.20
81222;DHT22;70691;52.492;13.420;2023-07-22T13:37:31;25.20;27.10
81222;DHT22;70691;52.492;13.420;2023-07-22T13:39:56;25.40;26.90
81222;DHT22;70691;52.492;13.420;2023-07-22T13:42:23;25.40;26.70
81222;DHT22;70691;52.492;13.420;2023-07-22T13:44:50;25.50;27.10
81222;DHT22;70691;52.492;13.420;2023-07-22T13:47:15;25.70;26.70
81222;DHT22;70691;52.492;13.420;2023-07-22T13:49:41;25.80;26.50
81222;DHT22;70691;52.492;13.420;2023-07-22T13:52:06;25.90;26.40
81222;DHT22;70691;52.492;13.420;2023-07-22T13:54:32;26.00;26.40
81222;DHT22;70691;52.492;13.420;2023-07-22T13:56:58;26.10;26.00
81222;DHT22;70691;52.492;13.420;2023-07-22T13:59:23;26.00;26.50
81222;DHT22;70691;52.492;13.420;2023-07-22T14:01:49;26.10;26.10
81222;DHT22;70691;52.492;13.420;2023-07-22T14:04:15;26.20;26.10
81222;DHT22;70691;52.492;13.420;2023-07-22T14:06:40;26.20;25.90
81222;DHT22;70691;52.492;13.420;2023-07-22T14:09:06;26.10;26.00
81222;DHT22;70691;52.492;13.420;2023-07-22T14:11:32;26.20;25.90
81222;DHT22;70691;52.492;13.420;2023-07-22T14:13:58;26.20;26.30
81222;DHT22;70691;52.492;13.420;2023-07-22T14:16:24;26.20;26.40
81222;DHT22;70691;52.492;13.420;2023-07-22T14:18:49;26.20;26.40
81222;DHT22;70691;52.492;13.420;2023-07-22T14:21:17;26.00;26.30
81222;DHT22;70691;52.492;13.420;2023-07-22T14:23:42;26.00;26.20
81222;DHT22;70691;52.492;13.420;2023-07-22T14:26:09;26.00;26.20
81222;DHT22;70691;52.492;13.420;2023-07-22T14:28:34;26.00;25.80
81222;DHT22;70691;52.492;13.420;2023-07-22T14:31:00;26.00;25.60
81222;DHT22;70691;52.492;13.420;2023-07-22T14:33:26;25.90;26.10
81222;DHT22;70691;52.492;13.420;2023-07-22T14:35:51;25.70;26.20
81222;DHT22;70691;52.492;13.420;2023-07-22T14:38:17;25.70;26.70
81222;DHT22;70691;52.492;13.420;2023-07-22T14:40:43;25.50;26.40
81222;DHT22;70691;52.492;13.420;2023-07-22T14:43:09;25.60;26.20
81222;DHT22;70691;52.492;13.420;2023-07-22T14:45:34;25.50;26.20
81222;DHT22;70691;52.492;13.420;2023-07-22T14:48:00;25.50;26.30
81222;DHT22;70691;52.492;13.420;2023-07-22T14:50:26;25.50;26.50
81222;DHT22;70691;52.492;13.420;2023-07-22T14:52:51;25.50;26.40
81222;DHT22;70691;52.492;13.420;2023-07-22T14:55:17;25.50;26.90
81222;DHT22;70691;52.492;13.420;2023-07-22T14:57:42;25.50;26.10
81222;DHT22;70691;52.492;13.420;2023-07-22T15:00:08;25.40;26.40
81222;DHT22;70691;52.492;13.420;2023-07-22T15:02:35;25.20;26.50
81222;DHT22;70691;52.492;13.420;2023-07-22T15:05:01;25.10;26.80
81222;DHT22;70691;52.492;13.420;2023-07-22T15:07:27;25.00;26.90
81222;DHT22;70691;52.492;13.420;2023-07-22T15:09:53;24.90;27.00
81222;DHT22;70691;52.492;13.420;2023-07-22T15:12:19;24.90;27.20
81222;DHT22;70691;52.492;13.420;2023-07-22T15:14:45;24.90;27.50
81222;DHT22;70691;52.492;13.420;2023-07-22T15:17:11;25.00;27.30
81222;DHT22;70691;52.492;13.420;2023-07-22T15:19:37;25.00;27.30
81222;DHT22;70691;52.492;13.420;2023-07-22T15:22:03;25.10;27.20
81222;DHT22;70691;52.492;13.420;2023-07-22T15:24:28;25.10;27.50
81222;DHT22;70691;52.492;13.420;2023-07-22T15:26:54;24.90;27.40
81222;DHT22;70691;52.492;13.420;2023-07-22T15:29:20;24.90;27.30
81222;DHT22;70691;52.492;13.420;2023-07-22T15:31:46;24.70;27.50
81222;DHT22;70691;52.492;13.420;2023-07-22T15:34:11;24.60;27.90